Time;durP1;ratioP1;P1;durP2;ratioP2;P2;SDS_P1;SDS_P2;PMS_P1;PMS_P2;Temp;Humidity;BMP_temperature;BMP_pressure;BME280_temperature;BME280_humidity;BME280_pressure;Samples;Min_cycle;Max_cycle;Signal;HPM_P1;HPM_P2
2022/07/12 00:00:49;;;;;;;20.20;19.20;;;;;;;;;;5074642;28;20439;-72
2022/07/12 00:03:17;;;;;;;20.90;19.60;;;;;;;;;;5074591;28;20417;-72
2022/07/12 00:05:44;;;;;;;20.70;19.60;;;;;;;;;;5074759;28;20412;-72
2022/07/12 00:08:13;;;;;;;19.77;18.77;;;;;;;;;;5074897;28;20440;-72
2022/07/12 00:10:41;;;;;;;20.00;19.00;;;;;;;;;;5074396;28;20452;-72
2022/07/12 00:13:08;;;;;;;20.87;19.77;;;;;;;;;;5074850;28;20467;-72
2022/07/12 00:15:36;;;;;;;20.23;19.23;;;;;;;;;;5074719;28;20439;-72
2022/07/12 00:18:04;;;;;;;21.30;19.90;;;;;;;;;;5074529;28;20448;-72
2022/07/12 00:20:31;;;;;;;19.50;18.50;;;;;;;;;;5074075;28;20472;-72
2022/07/12 00:22:58;;;;;;;20.50;19.30;;;;;;;;;;5074191;28;20413;-72
2022/07/12 00:25:27;;;;;;;19.33;18.40;;;;;;;;;;5075098;28;20430;-72
2022/07/12 00:27:55;;;;;;;20.10;19.07;;;;;;;;;;5074215;28;20420;-72
2022/07/12 00:30:23;;;;;;;20.30;19.30;;;;;;;;;;5073815;28;20813;-71
2022/07/12 00:32:51;;;;;;;19.33;18.43;;;;;;;;;;5074147;28;20487;-72
2022/07/12 00:35:18;;;;;;;21.07;19.90;;;;;;;;;;5074162;28;20761;-72
2022/07/12 00:37:45;;;;;;;19.53;18.63;;;;;;;;;;5074169;28;20437;-71
2022/07/12 00:40:13;;;;;;;20.37;19.37;;;;;;;;;;5073597;28;20702;-71
2022/07/12 00:42:42;;;;;;;20.30;19.30;;;;;;;;;;5073789;28;20439;-72
2022/07/12 00:45:09;;;;;;;19.67;18.70;;;;;;;;;;5073639;28;20448;-72
2022/07/12 00:47:39;;;;;;;20.83;19.73;;;;;;;;;;5073721;28;20403;-72
2022/07/12 00:50:08;;;;;;;20.67;19.63;;;;;;;;;;5073373;28;20493;-73
2022/07/12 00:52:37;;;;;;;19.73;18.83;;;;;;;;;;5073854;28;20415;-73
2022/07/12 00:55:04;;;;;;;19.97;18.97;;;;;;;;;;5073890;28;20479;-73
2022/07/12 00:57:33;;;;;;;20.67;19.47;;;;;;;;;;5074141;28;20422;-72
2022/07/12 01:00:02;;;;;;;19.53;18.53;;;;;;;;;;5073701;28;20495;-71
2022/07/12 01:02:29;;;;;;;20.50;19.40;;;;;;;;;;5073546;28;20414;-72
2022/07/12 01:04:57;;;;;;;19.70;18.70;;;;;;;;;;5074009;28;20424;-72
2022/07/12 01:07:25;;;;;;;20.60;19.50;;;;;;;;;;5073939;28;20475;-72
2022/07/12 01:09:53;;;;;;;20.77;19.67;;;;;;;;;;5073848;28;20443;-72
2022/07/12 01:12:21;;;;;;;20.73;19.73;;;;;;;;;;5074279;28;20515;-72
2022/07/12 01:14:49;;;;;;;20.77;19.57;;;;;;;;;;5073120;28;20454;-72
2022/07/12 01:17:18;;;;;;;20.17;19.10;;;;;;;;;;5073464;28;20412;-72
2022/07/12 01:19:46;;;;;;;20.53;19.50;;;;;;;;;;5073092;28;20417;-72
2022/07/12 01:22:16;;;;;;;19.87;18.87;;;;;;;;;;5073195;28;20933;-72
2022/07/12 01:24:44;;;;;;;19.33;18.43;;;;;;;;;;5073116;28;20430;-72
2022/07/12 01:27:12;;;;;;;20.57;19.47;;;;;;;;;;5074010;28;20796;-71
2022/07/12 01:29:40;;;;;;;19.07;18.17;;;;;;;;;;5072990;28;20417;-72
2022/07/12 01:34:50;;;;;;;19.43;18.50;;;;;;;;;;5073616;28;20433;-72
2022/07/12 01:37:19;;;;;;;19.80;18.80;;;;;;;;;;5073592;28;20436;-72
2022/07/12 01:39:49;;;;;;;19.90;18.90;;;;;;;;;;5072591;28;20569;-72
2022/07/12 01:42:16;;;;;;;19.50;18.60;;;;;;;;;;5073177;28;20444;-72
2022/07/12 01:44:43;;;;;;;19.37;18.23;;;;;;;;;;5073111;28;20442;-72
2022/07/12 01:47:11;;;;;;;20.43;19.43;;;;;;;;;;5072814;28;20765;-72
2022/07/12 01:49:38;;;;;;;19.97;18.97;;;;;;;;;;5072670;28;20922;-72
2022/07/12 01:52:06;;;;;;;20.30;19.00;;;;;;;;;;5072804;28;20448;-72
2022/07/12 01:54:34;;;;;;;20.47;19.37;;;;;;;;;;5072662;28;21075;-72
2022/07/12 01:57:04;;;;;;;19.90;18.90;;;;;;;;;;5073086;28;20416;-73
2022/07/12 01:59:32;;;;;;;19.13;18.23;;;;;;;;;;5072820;28;20912;-72
2022/07/12 02:01:59;;;;;;;19.33;18.43;;;;;;;;;;5072516;28;20443;-72
2022/07/12 02:04:27;;;;;;;19.60;18.60;;;;;;;;;;5073135;28;20445;-72
2022/07/12 02:06:54;;;;;;;19.63;18.67;;;;;;;;;;5073000;28;20514;-73
2022/07/12 02:09:21;;;;;;;19.83;18.90;;;;;;;;;;5072543;28;20413;-72
2022/07/12 02:11:49;;;;;;;19.87;18.87;;;;;;;;;;5073467;28;20476;-71
2022/07/12 02:14:18;;;;;;;19.83;18.87;;;;;;;;;;5076918;28;20908;-72
2022/07/12 02:16:45;;;;;;;20.00;19.00;;;;;;;;;;5077154;28;20405;-72
2022/07/12 02:19:13;;;;;;;19.63;18.73;;;;;;;;;;5077018;28;20443;-72
2022/07/12 02:21:40;;;;;;;20.20;18.80;;;;;;;;;;5076927;28;20424;-73
2022/07/12 02:24:08;;;;;;;19.83;18.83;;;;;;;;;;5076312;28;20426;-73
2022/07/12 02:26:36;;;;;;;19.97;18.97;;;;;;;;;;5076552;28;20401;-72
2022/07/12 02:29:04;;;;;;;19.93;19.00;;;;;;;;;;5076237;28;20498;-73
2022/07/12 02:31:33;;;;;;;19.50;18.30;;;;;;;;;;5076197;28;20477;-72
2022/07/12 02:34:00;;;;;;;21.50;20.30;;;;;;;;;;5075984;28;20430;-72
2022/07/12 02:36:28;;;;;;;19.87;18.80;;;;;;;;;;5076123;28;20435;-72
2022/07/12 02:38:55;;;;;;;20.57;19.30;;;;;;;;;;5075903;28;20482;-73
2022/07/12 02:41:22;;;;;;;20.10;19.07;;;;;;;;;;5076275;28;20416;-73
2022/07/12 02:43:49;;;;;;;20.80;19.70;;;;;;;;;;5076092;28;20442;-72
2022/07/12 02:46:17;;;;;;;19.47;18.47;;;;;;;;;;5076202;28;20484;-73
2022/07/12 02:48:46;;;;;;;20.37;19.37;;;;;;;;;;5076397;28;20417;-73
2022/07/12 02:51:13;;;;;;;19.73;18.63;;;;;;;;;;5076293;28;20456;-72
2022/07/12 02:53:40;;;;;;;18.80;17.90;;;;;;;;;;5076038;28;20434;-72
2022/07/12 02:56:08;;;;;;;20.67;19.67;;;;;;;;;;5075977;28;20408;-72
2022/07/12 02:58:36;;;;;;;19.23;18.23;;;;;;;;;;5076050;28;20985;-72
2022/07/12 03:01:03;;;;;;;19.33;18.33;;;;;;;;;;5075797;28;20460;-73
2022/07/12 03:03:30;;;;;;;19.07;18.00;;;;;;;;;;5075592;28;20482;-72
2022/07/12 03:05:59;;;;;;;18.33;17.33;;;;;;;;;;5075422;28;20444;-72
2022/07/12 03:08:26;;;;;;;20.23;19.13;;;;;;;;;;5075790;28;20438;-72
2022/07/12 03:10:53;;;;;;;19.07;18.17;;;;;;;;;;5075545;28;20476;-73
2022/07/12 03:13:21;;;;;;;18.97;18.07;;;;;;;;;;5075686;28;20442;-72
2022/07/12 03:15:49;;;;;;;19.90;18.90;;;;;;;;;;5075855;28;20445;-72
2022/07/12 03:18:17;;;;;;;19.80;18.43;;;;;;;;;;5075604;28;20428;-71
2022/07/12 03:20:44;;;;;;;19.30;18.40;;;;;;;;;;5075320;28;20951;-72
2022/07/12 03:23:13;;;;;;;19.93;18.83;;;;;;;;;;5074945;28;20434;-72
2022/07/12 03:25:40;;;;;;;18.93;17.83;;;;;;;;;;5074972;28;20759;-73
2022/07/12 03:28:08;;;;;;;19.27;18.27;;;;;;;;;;5075278;28;20413;-72
2022/07/12 03:30:35;;;;;;;19.60;18.60;;;;;;;;;;5075539;28;20456;-72
2022/07/12 03:33:03;;;;;;;18.50;17.60;;;;;;;;;;5075183;28;20438;-72
2022/07/12 03:35:30;;;;;;;19.37;18.37;;;;;;;;;;5074964;28;20435;-73
2022/07/12 03:37:57;;;;;;;19.30;18.30;;;;;;;;;;5075041;28;20882;-73
2022/07/12 03:40:26;;;;;;;19.83;18.63;;;;;;;;;;5075002;28;20488;-72
2022/07/12 03:42:53;;;;;;;19.00;18.10;;;;;;;;;;5074832;28;20421;-72
2022/07/12 03:45:21;;;;;;;19.50;18.60;;;;;;;;;;5075494;28;20438;-72
2022/07/12 03:47:50;;;;;;;19.47;18.57;;;;;;;;;;5074704;28;20434;-72
2022/07/12 03:50:17;;;;;;;19.13;18.23;;;;;;;;;;5075175;28;20440;-72
2022/07/12 03:52:45;;;;;;;19.20;18.20;;;;;;;;;;5074927;28;20816;-72
2022/07/12 03:55:13;;;;;;;19.97;18.87;;;;;;;;;;5074696;28;20926;-72
2022/07/12 03:57:42;;;;;;;19.23;18.27;;;;;;;;;;5074940;28;20433;-71
2022/07/12 04:00:11;;;;;;;19.60;18.50;;;;;;;;;;5074874;28;20418;-73
2022/07/12 04:02:39;;;;;;;18.47;17.47;;;;;;;;;;5074710;28;20454;-72
2022/07/12 04:05:07;;;;;;;18.23;17.33;;;;;;;;;;5074712;28;20439;-71
2022/07/12 04:07:35;;;;;;;19.47;18.57;;;;;;;;;;5074590;28;20444;-72
2022/07/12 04:10:02;;;;;;;19.60;18.60;;;;;;;;;;5074299;28;20904;-72
2022/07/12 04:12:29;;;;;;;19.37;18.37;;;;;;;;;;5074301;28;20850;-72
2022/07/12 04:14:58;;;;;;;20.60;19.27;;;;;;;;;;5074474;28;20405;-72
2022/07/12 04:17:25;;;;;;;19.30;18.30;;;;;;;;;;5074328;28;20517;-72
2022/07/12 04:19:53;;;;;;;19.37;18.37;;;;;;;;;;5074102;28;20878;-72
2022/07/12 04:22:20;;;;;;;19.83;18.83;;;;;;;;;;5074422;28;20426;-72
2022/07/12 04:24:47;;;;;;;19.80;18.70;;;;;;;;;;5074210;28;20442;-72
2022/07/12 04:27:15;;;;;;;18.80;17.90;;;;;;;;;;5074265;28;20438;-71
2022/07/12 04:29:43;;;;;;;20.07;19.07;;;;;;;;;;5073989;28;20445;-72
2022/07/12 04:32:11;;;;;;;19.47;18.47;;;;;;;;;;5074163;28;20445;-72
2022/07/12 04:34:39;;;;;;;19.63;18.63;;;;;;;;;;5073626;28;20450;-72
2022/07/12 04:37:06;;;;;;;20.20;19.20;;;;;;;;;;5073960;28;20871;-72
2022/07/12 04:39:33;;;;;;;20.03;19.13;;;;;;;;;;5073644;28;20817;-72
2022/07/12 04:42:00;;;;;;;19.20;18.30;;;;;;;;;;5073666;28;20433;-72
2022/07/12 04:44:28;;;;;;;21.33;20.03;;;;;;;;;;5073859;28;20415;-72
2022/07/12 04:46:55;;;;;;;19.10;18.10;;;;;;;;;;5073599;28;20421;-72
2022/07/12 04:49:24;;;;;;;21.23;20.03;;;;;;;;;;5073335;28;20442;-72
2022/07/12 04:51:51;;;;;;;19.53;18.53;;;;;;;;;;5073696;28;20483;-73
2022/07/12 04:54:19;;;;;;;19.23;18.33;;;;;;;;;;5074381;28;20479;-71
2022/07/12 04:56:46;;;;;;;20.33;19.43;;;;;;;;;;5073609;28;20417;-72
2022/07/12 04:59:14;;;;;;;20.60;19.53;;;;;;;;;;5073345;28;20893;-73
2022/07/12 05:01:41;;;;;;;21.87;20.67;;;;;;;;;;5073627;28;20409;-71
2022/07/12 05:04:08;;;;;;;19.73;18.73;;;;;;;;;;5073433;28;20413;-72
2022/07/12 05:06:37;;;;;;;21.27;19.87;;;;;;;;;;5073059;28;20973;-72
2022/07/12 05:09:04;;;;;;;21.00;20.00;;;;;;;;;;5073200;28;20421;-72
2022/07/12 05:11:33;;;;;;;21.90;20.70;;;;;;;;;;5073459;28;20467;-72
2022/07/12 05:14:00;;;;;;;21.77;20.67;;;;;;;;;;5073196;28;20410;-72
2022/07/12 05:16:29;;;;;;;21.23;20.13;;;;;;;;;;5073247;28;20439;-72
2022/07/12 05:18:56;;;;;;;21.33;20.07;;;;;;;;;;5072712;28;20415;-72
2022/07/12 05:21:24;;;;;;;20.60;19.40;;;;;;;;;;5073011;28;20413;-72
2022/07/12 05:23:52;;;;;;;20.50;19.50;;;;;;;;;;5072697;28;20870;-72
2022/07/12 05:26:20;;;;;;;21.03;19.93;;;;;;;;;;5073295;28;20504;-72
2022/07/12 05:28:47;;;;;;;22.07;20.97;;;;;;;;;;5072847;28;20455;-73
2022/07/12 05:31:14;;;;;;;22.90;21.70;;;;;;;;;;5072871;28;20427;-72
2022/07/12 05:33:42;;;;;;;22.70;21.50;;;;;;;;;;5072882;28;20896;-72
2022/07/12 05:36:09;;;;;;;21.77;20.67;;;;;;;;;;5073178;28;20417;-72
2022/07/12 05:38:37;;;;;;;24.20;22.40;;;;;;;;;;5072829;28;20483;-72
2022/07/12 05:41:05;;;;;;;22.53;21.33;;;;;;;;;;5072889;28;20932;-72
2022/07/12 05:43:33;;;;;;;23.30;22.10;;;;;;;;;;5073071;28;20847;-73
2022/07/12 05:46:00;;;;;;;22.80;21.60;;;;;;;;;;5074183;28;20434;-73
2022/07/12 05:48:27;;;;;;;23.70;22.40;;;;;;;;;;5073166;28;20414;-72
2022/07/12 05:50:55;;;;;;;24.33;22.87;;;;;;;;;;5073120;28;20911;-71
2022/07/12 05:53:24;;;;;;;24.90;23.50;;;;;;;;;;5073073;28;20459;-72
2022/07/12 05:55:52;;;;;;;22.93;21.63;;;;;;;;;;5074649;28;20428;-72
2022/07/12 05:58:21;;;;;;;24.27;22.87;;;;;;;;;;5073971;28;20916;-72
2022/07/12 06:00:49;;;;;;;24.23;22.90;;;;;;;;;;5073181;28;20432;-72
2022/07/12 06:03:17;;;;;;;23.67;22.10;;;;;;;;;;5073148;28;20454;-72
2022/07/12 06:05:44;;;;;;;23.53;22.23;;;;;;;;;;5073372;28;20445;-72
2022/07/12 06:08:12;;;;;;;24.10;22.60;;;;;;;;;;5073456;28;20472;-72
2022/07/12 06:10:39;;;;;;;23.57;22.17;;;;;;;;;;5072820;28;20441;-72
2022/07/12 06:13:06;;;;;;;23.80;22.50;;;;;;;;;;5072375;28;20964;-72
2022/07/12 06:15:35;;;;;;;23.40;22.10;;;;;;;;;;5072747;28;20441;-72
2022/07/12 06:18:02;;;;;;;23.53;22.23;;;;;;;;;;5072555;28;20915;-72
2022/07/12 06:20:30;;;;;;;22.47;21.27;;;;;;;;;;5072679;28;20411;-72
2022/07/12 06:22:57;;;;;;;23.57;22.27;;;;;;;;;;5072213;28;20945;-72
2022/07/12 06:25:25;;;;;;;22.60;21.40;;;;;;;;;;5072906;28;20421;-72
2022/07/12 06:27:52;;;;;;;23.90;22.60;;;;;;;;;;5072581;28;20406;-72
2022/07/12 06:30:20;;;;;;;23.80;22.50;;;;;;;;;;5072446;28;20441;-72
2022/07/12 06:32:49;;;;;;;22.53;21.23;;;;;;;;;;5072311;28;20462;-72
2022/07/12 06:35:16;;;;;;;24.90;23.50;;;;;;;;;;5072567;28;20416;-73
2022/07/12 06:37:44;;;;;;;24.43;23.17;;;;;;;;;;5072788;28;20424;-72
2022/07/12 06:40:11;;;;;;;23.77;22.27;;;;;;;;;;5071910;28;20523;-72
2022/07/12 06:42:39;;;;;;;24.33;22.97;;;;;;;;;;5072434;28;20441;-72
2022/07/12 06:45:07;;;;;;;23.10;21.60;;;;;;;;;;5072102;28;20901;-72
2022/07/12 06:47:34;;;;;;;24.30;22.63;;;;;;;;;;5072361;28;20470;-72
2022/07/12 06:50:03;;;;;;;24.77;23.27;;;;;;;;;;5072205;28;20466;-72
2022/07/12 06:52:30;;;;;;;22.07;20.87;;;;;;;;;;5072220;28;20560;-73
2022/07/12 06:54:58;;;;;;;22.00;20.80;;;;;;;;;;5071974;28;20412;-73
2022/07/12 06:57:26;;;;;;;21.80;20.50;;;;;;;;;;5072264;28;20417;-73
2022/07/12 06:59:54;;;;;;;21.80;20.40;;;;;;;;;;5074270;28;20414;-73
2022/07/12 07:02:21;;;;;;;22.40;20.90;;;;;;;;;;5075892;28;20504;-73
2022/07/12 07:04:48;;;;;;;21.73;20.53;;;;;;;;;;5075903;28;20440;-72
2022/07/12 07:07:17;;;;;;;22.90;21.40;;;;;;;;;;5075699;28;20478;-73
2022/07/12 07:09:44;;;;;;;22.83;21.63;;;;;;;;;;5075400;28;20447;-75
2022/07/12 07:12:12;;;;;;;24.47;22.97;;;;;;;;;;5075685;28;20795;-74
2022/07/12 07:14:39;;;;;;;22.87;21.67;;;;;;;;;;5075773;28;20436;-74
2022/07/12 07:17:07;;;;;;;23.50;22.20;;;;;;;;;;5076023;28;20449;-74
2022/07/12 07:19:34;;;;;;;23.70;22.40;;;;;;;;;;5076578;28;20439;-74
2022/07/12 07:22:01;;;;;;;22.80;21.47;;;;;;;;;;5076398;28;20432;-74
2022/07/12 07:24:30;;;;;;;23.60;22.10;;;;;;;;;;5075261;28;20403;-74
2022/07/12 07:26:57;;;;;;;23.53;22.30;;;;;;;;;;5075319;28;20446;-73
2022/07/12 07:32:09;;;;;;;22.47;21.30;;;;;;;;;;5074931;28;20509;-73
2022/07/12 07:34:37;;;;;;;21.60;20.40;;;;;;;;;;5075006;28;20792;-74
2022/07/12 07:37:04;;;;;;;22.60;21.40;;;;;;;;;;5075229;28;20447;-74
2022/07/12 07:39:33;;;;;;;22.43;21.23;;;;;;;;;;5075017;28;20480;-74
2022/07/12 07:42:00;;;;;;;22.23;21.07;;;;;;;;;;5075242;28;20426;-74
2022/07/12 07:44:28;;;;;;;21.63;20.53;;;;;;;;;;5075140;28;20419;-72
2022/07/12 07:46:55;;;;;;;21.77;20.67;;;;;;;;;;5074743;28;20817;-72
2022/07/12 07:49:23;;;;;;;21.20;20.17;;;;;;;;;;5074908;28;20427;-72
2022/07/12 07:51:50;;;;;;;22.13;20.90;;;;;;;;;;5075023;28;20419;-72
2022/07/12 07:54:17;;;;;;;21.93;20.83;;;;;;;;;;5074764;28;20821;-72
2022/07/12 07:56:46;;;;;;;22.70;21.43;;;;;;;;;;5074440;28;20427;-72
2022/07/12 07:59:14;;;;;;;22.40;21.30;;;;;;;;;;5085655;28;20402;-72
2022/07/12 08:01:45;;;;;;;22.57;21.20;;;;;;;;;;5084414;28;20432;-73
2022/07/12 08:04:12;;;;;;;21.47;20.37;;;;;;;;;;5082964;28;20441;-73
2022/07/12 08:06:40;;;;;;;22.63;21.40;;;;;;;;;;5086258;28;20469;-72
2022/07/12 08:09:07;;;;;;;22.50;21.30;;;;;;;;;;5094923;28;20410;-72
2022/07/12 08:11:35;;;;;;;22.30;21.20;;;;;;;;;;5094425;28;20417;-72
2022/07/12 08:14:03;;;;;;;22.13;20.63;;;;;;;;;;5094447;28;20986;-72
2022/07/12 08:16:31;;;;;;;21.27;20.10;;;;;;;;;;5094755;28;20444;-72
2022/07/12 08:18:59;;;;;;;20.63;19.63;;;;;;;;;;5092951;28;21011;-72
2022/07/12 08:21:27;;;;;;;21.43;20.33;;;;;;;;;;5094744;28;20441;-72
2022/07/12 08:23:55;;;;;;;21.03;19.93;;;;;;;;;;5094402;28;20417;-73
2022/07/12 08:26:23;;;;;;;21.50;20.40;;;;;;;;;;5094646;28;20410;-72
2022/07/12 08:28:50;;;;;;;21.50;20.20;;;;;;;;;;5094179;28;20504;-72
2022/07/12 08:31:19;;;;;;;21.20;20.10;;;;;;;;;;5094141;28;20908;-72
2022/07/12 08:33:46;;;;;;;20.33;19.33;;;;;;;;;;5094086;28;20460;-72
2022/07/12 08:36:13;;;;;;;20.53;19.43;;;;;;;;;;5094387;28;20778;-72
2022/07/12 08:38:43;;;;;;;20.67;19.57;;;;;;;;;;5094156;28;20482;-72
2022/07/12 08:41:12;;;;;;;21.63;20.53;;;;;;;;;;5094239;28;20439;-73
2022/07/12 08:43:39;;;;;;;21.03;19.77;;;;;;;;;;5094257;28;20425;-72
2022/07/12 08:46:07;;;;;;;22.47;21.30;;;;;;;;;;5094002;28;20900;-73
2022/07/12 08:48:36;;;;;;;21.10;19.90;;;;;;;;;;5094188;28;20471;-72
2022/07/12 08:51:04;;;;;;;21.13;19.90;;;;;;;;;;5094244;28;20426;-73
2022/07/12 08:53:32;;;;;;;21.93;20.73;;;;;;;;;;5094276;28;20459;-72
2022/07/12 08:55:59;;;;;;;21.70;20.30;;;;;;;;;;5093872;28;20411;-73
2022/07/12 08:58:27;;;;;;;22.33;21.13;;;;;;;;;;5093777;28;20409;-72
2022/07/12 09:00:54;;;;;;;21.20;20.00;;;;;;;;;;5094003;28;20414;-72
2022/07/12 09:03:21;;;;;;;21.87;20.57;;;;;;;;;;5093472;28;20440;-72
2022/07/12 09:05:52;;;;;;;22.00;20.80;;;;;;;;;;5093554;28;20494;-72
2022/07/12 09:08:20;;;;;;;21.60;20.50;;;;;;;;;;5093525;28;20773;-73
2022/07/12 09:10:54;;;;;;;21.30;20.10;;;;;;;;;;5093832;28;20434;-72
2022/07/12 09:13:21;;;;;;;21.63;20.50;;;;;;;;;;5093602;28;20466;-72
2022/07/12 09:15:50;;;;;;;20.93;19.63;;;;;;;;;;5093282;28;20409;-72
2022/07/12 09:18:25;;;;;;;22.10;20.80;;;;;;;;;;5093411;28;20489;-73
2022/07/12 09:20:54;;;;;;;21.40;20.20;;;;;;;;;;5093467;28;20451;-72
2022/07/12 09:23:22;;;;;;;22.30;21.10;;;;;;;;;;5092812;28;20406;-73
2022/07/12 09:25:49;;;;;;;21.53;20.33;;;;;;;;;;5093212;28;20407;-72
2022/07/12 09:28:17;;;;;;;22.70;21.40;;;;;;;;;;5093512;28;20445;-72
2022/07/12 09:30:52;;;;;;;21.50;20.20;;;;;;;;;;5093171;28;20422;-73
2022/07/12 09:36:07;;;;;;;20.50;19.30;;;;;;;;;;5085753;28;20470;-71
2022/07/12 09:38:35;;;;;;;21.50;20.20;;;;;;;;;;5085657;28;21059;-72
2022/07/12 09:41:02;;;;;;;22.33;21.00;;;;;;;;;;5093382;28;20447;-71
2022/07/12 09:43:32;;;;;;;21.77;20.57;;;;;;;;;;5093255;28;20411;-71
2022/07/12 09:45:59;;;;;;;21.83;20.63;;;;;;;;;;5093003;28;20452;-72
2022/07/12 09:48:28;;;;;;;21.90;20.70;;;;;;;;;;5093097;28;20616;-72
2022/07/12 09:50:56;;;;;;;21.77;20.47;;;;;;;;;;5093276;28;20447;-72
2022/07/12 09:53:31;;;;;;;22.23;20.80;;;;;;;;;;5093066;28;20471;-72
2022/07/12 09:55:59;;;;;;;20.53;19.27;;;;;;;;;;5093270;28;20535;-72
2022/07/12 09:58:28;;;;;;;20.67;19.47;;;;;;;;;;5092747;28;20436;-73
2022/07/12 10:00:57;;;;;;;21.33;20.13;;;;;;;;;;5093896;28;20414;-74
2022/07/12 10:03:25;;;;;;;20.97;19.83;;;;;;;;;;5093006;28;20815;-74
2022/07/12 10:05:53;;;;;;;20.57;19.47;;;;;;;;;;5093083;28;20454;-73
2022/07/12 10:08:22;;;;;;;20.07;18.97;;;;;;;;;;5093026;28;20435;-72
2022/07/12 10:10:51;;;;;;;20.97;19.77;;;;;;;;;;5093072;28;20414;-72
2022/07/12 10:13:19;;;;;;;22.20;20.83;;;;;;;;;;5092320;28;20518;-74
2022/07/12 10:15:48;;;;;;;22.70;21.40;;;;;;;;;;5092590;28;20475;-73
2022/07/12 10:18:18;;;;;;;22.17;20.97;;;;;;;;;;5092584;28;20485;-73
2022/07/12 10:20:46;;;;;;;22.83;21.57;;;;;;;;;;5092853;28;20435;-72
2022/07/12 10:23:37;;;;;;;22.70;21.30;;;;;;;;;;5092397;28;20804;-73
2022/07/12 10:26:22;;;;;;;22.73;21.30;;;;;;;;;;5089281;28;20456;-74
2022/07/12 10:28:58;;;;;;;21.87;20.67;;;;;;;;;;5072930;28;20427;-74
2022/07/12 10:31:26;;;;;;;22.30;21.00;;;;;;;;;;5072815;28;20426;-73
2022/07/12 10:34:24;;;;;;;21.50;20.30;;;;;;;;;;5074603;28;20564;-75
2022/07/12 10:37:21;;;;;;;23.27;21.97;;;;;;;;;;5029518;28;20780;-73
2022/07/12 10:40:07;;;;;;;22.00;20.70;;;;;;;;;;5033565;28;20456;-76
2022/07/12 10:42:35;;;;;;;21.30;20.10;;;;;;;;;;5017247;28;20504;-71
2022/07/12 10:45:13;;;;;;;21.60;20.27;;;;;;;;;;5033711;28;20466;-70
2022/07/12 10:47:55;;;;;;;21.60;20.40;;;;;;;;;;5033910;28;20417;-70
2022/07/12 10:50:37;;;;;;;21.30;20.10;;;;;;;;;;5033594;28;20919;-72
2022/07/12 10:53:20;;;;;;;22.40;20.90;;;;;;;;;;5033546;28;20455;-73
2022/07/12 10:56:08;;;;;;;22.10;20.80;;;;;;;;;;5033977;28;20920;-70
2022/07/12 10:58:37;;;;;;;22.17;20.97;;;;;;;;;;5033621;28;20520;-71
2022/07/12 11:01:06;;;;;;;22.53;21.23;;;;;;;;;;5033602;28;20423;-76
2022/07/12 11:03:34;;;;;;;22.10;20.87;;;;;;;;;;5033582;28;20432;-71
2022/07/12 11:06:03;;;;;;;22.80;21.50;;;;;;;;;;5033178;28;20496;-73
2022/07/12 11:08:31;;;;;;;21.57;20.47;;;;;;;;;;5035146;28;20439;-73
2022/07/12 11:10:59;;;;;;;21.23;20.03;;;;;;;;;;5064395;28;20462;-83
2022/07/12 11:13:27;;;;;;;21.63;20.30;;;;;;;;;;5095893;28;20450;-74
2022/07/12 11:15:58;;;;;;;22.73;21.43;;;;;;;;;;5096102;28;20414;-76
2022/07/12 11:18:33;;;;;;;21.20;20.00;;;;;;;;;;5097523;28;20407;-71
2022/07/12 11:21:01;;;;;;;21.33;20.13;;;;;;;;;;5095283;28;20435;-72
2022/07/12 11:23:28;;;;;;;21.67;20.47;;;;;;;;;;5095486;28;20440;-72
2022/07/12 11:25:56;;;;;;;22.23;21.00;;;;;;;;;;5095600;28;20419;-70
2022/07/12 11:28:25;;;;;;;22.20;21.00;;;;;;;;;;5095723;28;20451;-71
2022/07/12 11:30:52;;;;;;;21.80;20.50;;;;;;;;;;5095159;28;20422;-74
2022/07/12 11:33:20;;;;;;;21.23;20.13;;;;;;;;;;5096010;28;20873;-73
2022/07/12 11:35:49;;;;;;;21.30;20.03;;;;;;;;;;5095577;28;20467;-73
2022/07/12 11:38:25;;;;;;;20.80;19.70;;;;;;;;;;5095070;28;20436;-72
2022/07/12 11:40:56;;;;;;;21.67;20.47;;;;;;;;;;5095283;28;20440;-72
2022/07/12 11:43:23;;;;;;;22.40;21.13;;;;;;;;;;5095149;28;20408;-72
2022/07/12 11:45:51;;;;;;;22.40;21.10;;;;;;;;;;5094595;28;20441;-71
2022/07/12 11:48:19;;;;;;;21.70;20.50;;;;;;;;;;5095139;28;20418;-71
2022/07/12 11:50:46;;;;;;;22.20;21.00;;;;;;;;;;5095278;28;20432;-73
2022/07/12 11:53:18;;;;;;;21.23;19.97;;;;;;;;;;5095287;28;20437;-72
2022/07/12 11:55:46;;;;;;;21.93;20.63;;;;;;;;;;5094815;28;20506;-74
2022/07/12 11:58:14;;;;;;;22.00;20.77;;;;;;;;;;5095330;28;20448;-75
2022/07/12 12:00:41;;;;;;;21.97;20.87;;;;;;;;;;5095079;28;20411;-72
2022/07/12 12:03:08;;;;;;;22.50;21.30;;;;;;;;;;5094810;28;20792;-72
2022/07/12 12:05:36;;;;;;;22.73;21.23;;;;;;;;;;5094785;28;20521;-74
2022/07/12 12:08:04;;;;;;;23.27;21.97;;;;;;;;;;5094720;28;20502;-72
2022/07/12 12:10:34;;;;;;;22.13;20.73;;;;;;;;;;5094790;28;20755;-74
2022/07/12 12:13:02;;;;;;;22.50;21.20;;;;;;;;;;5094566;28;20480;-74
2022/07/12 12:15:31;;;;;;;22.73;21.50;;;;;;;;;;5094374;28;20995;-74
2022/07/12 12:17:59;;;;;;;23.00;21.70;;;;;;;;;;5094110;28;20889;-75
2022/07/12 12:20:27;;;;;;;22.17;20.97;;;;;;;;;;5094651;28;20433;-78
2022/07/12 12:22:55;;;;;;;23.40;22.10;;;;;;;;;;5093986;28;20448;-77
2022/07/12 12:25:23;;;;;;;22.53;21.23;;;;;;;;;;5094781;28;20416;-75
2022/07/12 12:27:56;;;;;;;21.87;20.67;;;;;;;;;;5094855;28;20777;-74
2022/07/12 12:30:24;;;;;;;22.33;21.13;;;;;;;;;;5098923;28;20412;-77
2022/07/12 12:32:52;;;;;;;23.30;22.00;;;;;;;;;;5095787;28;20433;-76
2022/07/12 12:35:20;;;;;;;23.33;22.03;;;;;;;;;;5095433;28;20495;-74
2022/07/12 12:38:06;;;;;;;23.57;22.27;;;;;;;;;;5096558;28;20448;-77
2022/07/12 12:40:34;;;;;;;23.90;22.30;;;;;;;;;;5098177;28;20528;-75
2022/07/12 12:43:10;;;;;;;23.60;22.30;;;;;;;;;;5094845;28;20480;-79
2022/07/12 12:45:38;;;;;;;23.47;22.17;;;;;;;;;;5094701;28;20416;-76
2022/07/12 12:48:06;;;;;;;23.63;22.23;;;;;;;;;;5094460;28;20424;-77
2022/07/12 12:50:37;;;;;;;23.90;22.60;;;;;;;;;;5094342;28;20433;-74
2022/07/12 12:53:08;;;;;;;24.00;22.70;;;;;;;;;;5095121;28;20928;-74
2022/07/12 12:55:35;;;;;;;24.00;22.63;;;;;;;;;;5094528;28;20464;-74
2022/07/12 12:58:03;;;;;;;23.93;22.63;;;;;;;;;;5093772;28;20404;-75
2022/07/12 13:00:33;;;;;;;23.70;22.40;;;;;;;;;;5094760;28;20486;-75
2022/07/12 13:03:00;;;;;;;23.70;22.40;;;;;;;;;;5094658;28;20804;-75
2022/07/12 13:05:28;;;;;;;23.20;22.00;;;;;;;;;;5095145;28;20545;-74
2022/07/12 13:07:56;;;;;;;24.00;22.70;;;;;;;;;;5095974;28;20434;-74
2022/07/12 13:10:23;;;;;;;23.97;22.67;;;;;;;;;;5095146;28;20808;-74
2022/07/12 13:12:51;;;;;;;23.43;22.13;;;;;;;;;;5094816;28;20867;-75
2022/07/12 13:15:19;;;;;;;22.33;21.13;;;;;;;;;;5094959;28;20478;-73
2022/07/12 13:17:53;;;;;;;23.47;22.17;;;;;;;;;;5093853;28;20494;-72
2022/07/12 13:20:20;;;;;;;23.10;21.80;;;;;;;;;;5093590;28;20963;-75
2022/07/12 13:22:47;;;;;;;23.50;22.20;;;;;;;;;;5093186;28;20445;-75
2022/07/12 13:25:15;;;;;;;23.93;22.63;;;;;;;;;;5093978;28;20420;-75
2022/07/12 13:27:43;;;;;;;23.73;22.53;;;;;;;;;;5094141;28;20907;-74
2022/07/12 13:30:13;;;;;;;23.20;21.90;;;;;;;;;;5093455;28;20417;-73
2022/07/12 13:32:41;;;;;;;23.57;22.10;;;;;;;;;;5093381;28;20452;-76
2022/07/12 13:35:10;;;;;;;23.00;21.80;;;;;;;;;;5092757;28;20489;-73
2022/07/12 13:37:39;;;;;;;22.67;21.47;;;;;;;;;;5093350;28;20419;-72
2022/07/12 13:40:14;;;;;;;22.73;21.43;;;;;;;;;;5092731;28;20477;-72
2022/07/12 13:42:45;;;;;;;22.00;20.80;;;;;;;;;;5094151;28;20446;-73
2022/07/12 13:45:14;;;;;;;22.40;21.20;;;;;;;;;;5096013;28;20454;-74
2022/07/12 13:47:45;;;;;;;23.27;21.97;;;;;;;;;;5095470;28;20457;-71
2022/07/12 13:50:16;;;;;;;22.87;21.67;;;;;;;;;;5095386;28;20452;-71
2022/07/12 13:52:44;;;;;;;22.77;21.57;;;;;;;;;;5095457;28;20946;-71
2022/07/12 13:55:16;;;;;;;22.47;21.27;;;;;;;;;;5093886;28;21024;-71
2022/07/12 13:57:44;;;;;;;22.00;20.80;;;;;;;;;;5095719;28;20451;-72
2022/07/12 14:00:16;;;;;;;23.60;22.30;;;;;;;;;;5095143;28;20548;-71
2022/07/12 14:02:45;;;;;;;22.90;21.70;;;;;;;;;;5094580;28;20416;-72
2022/07/12 14:05:13;;;;;;;23.13;21.83;;;;;;;;;;5093404;28;20478;-72
2022/07/12 14:07:43;;;;;;;24.10;22.60;;;;;;;;;;5093348;28;20418;-72
2022/07/12 14:10:11;;;;;;;23.60;22.30;;;;;;;;;;5097101;28;20748;-72
2022/07/12 14:12:39;;;;;;;22.67;21.37;;;;;;;;;;5097064;28;20437;-72
2022/07/12 14:15:19;;;;;;;22.63;21.33;;;;;;;;;;5096923;28;20478;-71
2022/07/12 14:17:47;;;;;;;22.50;21.10;;;;;;;;;;5096925;28;20444;-72
2022/07/12 14:20:15;;;;;;;22.27;20.97;;;;;;;;;;5096460;28;20440;-72
2022/07/12 14:22:44;;;;;;;22.07;20.87;;;;;;;;;;5096681;28;20460;-72
2022/07/12 14:25:11;;;;;;;23.20;21.90;;;;;;;;;;5096784;28;20436;-73
2022/07/12 14:27:39;;;;;;;22.80;21.43;;;;;;;;;;5096804;28;20416;-75
2022/07/12 14:30:08;;;;;;;25.63;22.20;;;;;;;;;;5096103;28;20414;-72
2022/07/12 14:32:36;;;;;;;23.07;21.67;;;;;;;;;;5096683;28;20426;-73